Time;durP1;ratioP1;P1;durP2;ratioP2;P2;SDS_P1;SDS_P2;PMS_P1;PMS_P2;Temp;Humidity;BMP_temperature;BMP_pressure;BME280_temperature;BME280_humidity;BME280_pressure;Samples;Min_cycle;Max_cycle;Signal;HPM_P1;HPM_P2
2021/12/14 00:01:54;;;;;;;2.70;2.50;;;;;;;;;;5028074;28;20264;-51
2021/12/14 00:04:27;;;;;;;2.67;2.47;;;;;;;;;;5008792;28;20200;-55
2021/12/14 00:06:54;;;;;;;2.80;2.60;;;;;;;;;;4995812;28;20181;-53
2021/12/14 00:09:25;;;;;;;2.53;2.33;;;;;;;;;;5031527;28;20269;-53
2021/12/14 00:17:21;;;;;;;2.27;2.07;;;;;;;;;;5032287;28;20188;-55
2021/12/14 00:19:49;;;;;;;2.93;2.63;;;;;;;;;;5030477;28;20181;-54
2021/12/14 00:25:01;;;;;;;2.60;2.40;;;;;;;;;;5032402;28;20669;-53
2021/12/14 00:27:27;;;;;;;3.03;2.47;;;;;;;;;;5030740;28;20185;-53
2021/12/14 00:29:55;;;;;;;2.53;2.33;;;;;;;;;;5012777;28;20641;-54
2021/12/14 00:32:25;;;;;;;2.60;2.40;;;;;;;;;;5030999;28;20197;-53
2021/12/14 00:34:52;;;;;;;2.50;2.30;;;;;;;;;;5018850;28;20227;-52
2021/12/14 00:37:24;;;;;;;2.53;2.33;;;;;;;;;;5033011;28;20193;-54
2021/12/14 00:39:52;;;;;;;3.07;2.37;;;;;;;;;;5031697;28;20190;-54
2021/12/14 00:42:18;;;;;;;3.00;2.70;;;;;;;;;;5030757;28;20226;-53
2021/12/14 00:44:45;;;;;;;3.33;3.03;;;;;;;;;;5011661;28;20189;-54
2021/12/14 00:47:11;;;;;;;3.00;2.80;;;;;;;;;;5031874;28;20219;-55
2021/12/14 00:49:37;;;;;;;4.57;3.20;;;;;;;;;;5031075;28;20311;-54
2021/12/14 00:52:05;;;;;;;4.73;2.90;;;;;;;;;;5031820;28;20515;-54
2021/12/14 00:54:31;;;;;;;4.77;3.00;;;;;;;;;;5030574;28;20492;-54
2021/12/14 00:56:58;;;;;;;3.07;2.53;;;;;;;;;;5031100;28;20232;-54
2021/12/14 00:59:25;;;;;;;3.97;3.27;;;;;;;;;;5029531;28;20190;-53
2021/12/14 01:01:54;;;;;;;3.23;2.93;;;;;;;;;;5030034;28;20188;-53
2021/12/14 01:04:26;;;;;;;3.10;2.80;;;;;;;;;;5031127;28;20252;-53
2021/12/14 01:06:53;;;;;;;3.23;2.80;;;;;;;;;;4997154;28;20197;-55
2021/12/14 01:09:22;;;;;;;3.57;2.90;;;;;;;;;;5030120;28;20661;-53
2021/12/14 01:11:49;;;;;;;3.03;2.73;;;;;;;;;;5030329;28;20239;-53
2021/12/14 01:14:24;;;;;;;2.80;2.60;;;;;;;;;;5011564;28;20190;-54
2021/12/14 01:17:08;;;;;;;3.03;2.47;;;;;;;;;;5030399;28;20237;-52
2021/12/14 01:19:36;;;;;;;3.20;2.90;;;;;;;;;;5028949;28;20194;-56
2021/12/14 01:22:20;;;;;;;3.50;3.03;;;;;;;;;;5031057;28;20197;-54
2021/12/14 01:25:03;;;;;;;3.23;2.90;;;;;;;;;;5029706;28;20296;-53
2021/12/14 01:27:34;;;;;;;4.83;2.57;;;;;;;;;;5013264;28;20189;-54
2021/12/14 01:30:05;;;;;;;3.83;3.23;;;;;;;;;;5029490;28;20178;-53
2021/12/14 01:32:35;;;;;;;8.93;2.63;;;;;;;;;;5012336;28;20217;-54
2021/12/14 01:35:01;;;;;;;9.67;3.50;;;;;;;;;;5030712;28;20224;-54
2021/12/14 01:37:39;;;;;;;6.67;3.20;;;;;;;;;;5014116;28;20652;-54
2021/12/14 01:40:17;;;;;;;8.03;2.87;;;;;;;;;;5029430;28;20216;-53
2021/12/14 01:42:43;;;;;;;7.43;2.87;;;;;;;;;;5025039;28;20678;-54
2021/12/14 01:45:09;;;;;;;6.27;3.30;;;;;;;;;;5029088;28;20190;-53
2021/12/14 01:47:39;;;;;;;4.00;2.87;;;;;;;;;;5030670;28;20579;-53
2021/12/14 01:50:07;;;;;;;3.87;2.97;;;;;;;;;;5030246;28;20185;-53
2021/12/14 01:52:34;;;;;;;9.27;3.50;;;;;;;;;;5028746;28;20182;-54
2021/12/14 01:55:07;;;;;;;5.47;3.20;;;;;;;;;;5013941;28;20684;-53
2021/12/14 01:57:35;;;;;;;4.68;3.25;;;;;;;;;;5011900;28;20932;-54
2021/12/14 02:00:02;;;;;;;5.00;3.17;;;;;;;;;;5019274;28;20202;-54
2021/12/14 02:02:33;;;;;;;4.43;3.20;;;;;;;;;;5030045;28;20205;-54
2021/12/14 02:05:02;;;;;;;3.77;2.70;;;;;;;;;;5029664;28;20200;-54
2021/12/14 02:07:29;;;;;;;3.63;2.97;;;;;;;;;;5011502;28;20178;-54
2021/12/14 02:10:02;;;;;;;4.03;2.97;;;;;;;;;;5029221;28;20174;-53
2021/12/14 02:12:29;;;;;;;3.10;2.80;;;;;;;;;;5008649;28;20622;-55
2021/12/14 02:15:02;;;;;;;10.20;3.20;;;;;;;;;;5028412;28;20178;-54
2021/12/14 02:17:28;;;;;;;4.60;3.40;;;;;;;;;;5012413;28;20185;-55
2021/12/14 02:19:54;;;;;;;3.97;3.57;;;;;;;;;;5028939;28;20189;-53
2021/12/14 02:22:21;;;;;;;3.93;3.63;;;;;;;;;;5029487;28;20216;-53
2021/12/14 02:24:48;;;;;;;4.27;3.50;;;;;;;;;;5027577;28;20230;-53
2021/12/14 02:27:15;;;;;;;4.67;3.23;;;;;;;;;;5028570;28;20243;-53
2021/12/14 02:29:43;;;;;;;3.80;3.20;;;;;;;;;;5020425;28;20178;-53
2021/12/14 02:32:14;;;;;;;6.60;3.20;;;;;;;;;;5030045;28;20530;-53
2021/12/14 02:34:47;;;;;;;4.63;4.20;;;;;;;;;;5011648;28;20562;-53
2021/12/14 02:37:13;;;;;;;5.03;3.73;;;;;;;;;;5011776;28;21001;-53
2021/12/14 02:42:07;;;;;;;5.50;3.13;;;;;;;;;;5028682;28;20198;-54
2021/12/14 02:44:33;;;;;;;3.97;3.33;;;;;;;;;;5025362;28;20639;-53
2021/12/14 02:47:02;;;;;;;4.73;3.73;;;;;;;;;;5030554;28;20456;-54
2021/12/14 02:49:30;;;;;;;9.60;6.67;;;;;;;;;;5007468;28;20563;-53
2021/12/14 02:51:58;;;;;;;5.87;3.67;;;;;;;;;;5013268;28;20266;-55
2021/12/14 02:54:26;;;;;;;6.40;3.60;;;;;;;;;;5002714;28;20218;-52
2021/12/14 02:57:04;;;;;;;4.17;3.80;;;;;;;;;;5007242;28;20202;-53
2021/12/14 02:59:31;;;;;;;3.87;2.97;;;;;;;;;;5006391;28;20638;-53
2021/12/14 03:02:03;;;;;;;3.50;3.20;;;;;;;;;;5006547;28;20178;-54
2021/12/14 03:04:29;;;;;;;3.70;3.37;;;;;;;;;;5009919;28;20210;-53
2021/12/14 03:06:57;;;;;;;4.13;3.20;;;;;;;;;;5000424;28;20179;-53
2021/12/14 03:12:04;;;;;;;4.87;3.37;;;;;;;;;;4989711;28;20275;-52
2021/12/14 03:14:30;;;;;;;4.23;3.83;;;;;;;;;;5007250;28;20255;-53
2021/12/14 03:16:56;;;;;;;4.53;3.77;;;;;;;;;;5007293;28;20732;-53
2021/12/14 03:19:23;;;;;;;4.97;4.10;;;;;;;;;;5009911;28;20210;-55
2021/12/14 03:21:49;;;;;;;4.37;3.93;;;;;;;;;;5005671;28;20214;-54
2021/12/14 03:24:18;;;;;;;3.60;3.30;;;;;;;;;;5001875;28;20246;-54
2021/12/14 03:26:47;;;;;;;7.40;4.37;;;;;;;;;;5006885;28;20175;-53
2021/12/14 03:29:14;;;;;;;4.07;3.70;;;;;;;;;;5007133;28;20233;-53
2021/12/14 03:31:46;;;;;;;4.80;4.30;;;;;;;;;;5006915;28;20269;-54
2021/12/14 03:34:12;;;;;;;4.60;4.00;;;;;;;;;;5006985;28;20175;-54
2021/12/14 03:36:43;;;;;;;6.00;3.60;;;;;;;;;;5001322;28;20515;-53
2021/12/14 03:39:09;;;;;;;5.83;4.40;;;;;;;;;;5006330;28;20218;-53
2021/12/14 03:41:38;;;;;;;4.17;3.73;;;;;;;;;;4999892;28;20772;-55
2021/12/14 03:44:10;;;;;;;4.40;4.00;;;;;;;;;;5004904;28;20225;-54
2021/12/14 03:46:42;;;;;;;4.37;3.97;;;;;;;;;;4989362;28;20185;-55
2021/12/14 03:49:09;;;;;;;4.30;3.90;;;;;;;;;;5002874;28;20578;-55
2021/12/14 03:51:35;;;;;;;5.07;4.10;;;;;;;;;;5008357;28;20186;-54
2021/12/14 03:54:01;;;;;;;5.77;4.37;;;;;;;;;;5018399;28;20220;-53
2021/12/14 03:56:27;;;;;;;4.30;3.90;;;;;;;;;;5022622;28;20205;-53
2021/12/14 03:58:53;;;;;;;5.30;4.80;;;;;;;;;;5028185;28;20235;-53
2021/12/14 04:01:25;;;;;;;5.70;5.13;;;;;;;;;;5027087;28;20718;-54
2021/12/14 04:03:53;;;;;;;5.50;4.93;;;;;;;;;;5028785;28;20170;-53
2021/12/14 04:06:22;;;;;;;5.40;4.90;;;;;;;;;;5027913;28;20221;-53
2021/12/14 04:08:48;;;;;;;5.60;4.90;;;;;;;;;;4993512;28;20668;-53
2021/12/14 04:11:15;;;;;;;6.70;4.83;;;;;;;;;;5021666;28;20395;-53
2021/12/14 04:13:43;;;;;;;6.17;5.50;;;;;;;;;;5021793;28;20182;-54
2021/12/14 04:16:10;;;;;;;5.10;4.60;;;;;;;;;;5009672;28;20325;-53
2021/12/14 04:18:36;;;;;;;6.53;5.50;;;;;;;;;;5029671;28;20174;-53
2021/12/14 04:21:02;;;;;;;6.37;4.80;;;;;;;;;;5010185;28;20649;-52
2021/12/14 04:23:31;;;;;;;6.20;5.33;;;;;;;;;;5029344;28;20192;-53
2021/12/14 04:26:00;;;;;;;7.07;5.77;;;;;;;;;;5028071;28;20555;-53
2021/12/14 04:28:34;;;;;;;6.40;5.40;;;;;;;;;;5031132;28;20276;-53
2021/12/14 04:31:00;;;;;;;6.30;5.50;;;;;;;;;;5026168;28;20192;-53
2021/12/14 04:33:32;;;;;;;6.70;6.00;;;;;;;;;;5033494;28;20609;-52
2021/12/14 04:35:59;;;;;;;6.03;5.43;;;;;;;;;;5010429;28;20186;-53
2021/12/14 04:38:29;;;;;;;7.53;5.60;;;;;;;;;;5029323;28;20182;-52
2021/12/14 04:52:09;;;;;;;7.00;6.03;;;;;;;;;;5027770;28;20176;-52
2021/12/14 04:55:04;;;;;;;8.00;5.67;;;;;;;;;;5031037;28;20240;-53
2021/12/14 04:57:43;;;;;;;8.03;6.60;;;;;;;;;;5018059;28;20224;-53
2021/12/14 05:00:15;;;;;;;7.70;6.33;;;;;;;;;;5014413;28;20228;-53
2021/12/14 05:02:43;;;;;;;10.57;7.03;;;;;;;;;;5031351;28;20548;-53
2021/12/14 05:05:10;;;;;;;7.87;7.07;;;;;;;;;;5031515;28;20189;-52
2021/12/14 05:10:07;;;;;;;9.77;7.00;;;;;;;;;;5031141;28;20206;-54
2021/12/14 05:12:34;;;;;;;8.13;7.00;;;;;;;;;;5030838;28;20587;-53
2021/12/14 05:15:02;;;;;;;7.83;6.63;;;;;;;;;;5029765;28;20432;-53
2021/12/14 05:17:31;;;;;;;8.77;7.27;;;;;;;;;;5030754;28;20173;-54
2021/12/14 05:19:58;;;;;;;10.53;8.10;;;;;;;;;;5025380;28;20180;-53
2021/12/14 05:22:26;;;;;;;8.67;6.47;;;;;;;;;;5031153;28;20185;-52
2021/12/14 05:24:54;;;;;;;8.27;7.20;;;;;;;;;;5031679;28;20589;-54
2021/12/14 05:27:28;;;;;;;9.17;7.03;;;;;;;;;;5010738;28;20185;-52
2021/12/14 05:29:55;;;;;;;8.63;7.30;;;;;;;;;;5026529;28;20200;-55
2021/12/14 05:32:21;;;;;;;8.90;7.10;;;;;;;;;;5029623;28;20222;-52
2021/12/14 05:34:49;;;;;;;10.43;7.77;;;;;;;;;;5013067;28;20724;-52
2021/12/14 05:37:21;;;;;;;8.83;7.27;;;;;;;;;;5032590;28;20265;-53
2021/12/14 05:39:54;;;;;;;9.70;7.10;;;;;;;;;;5013041;28;20238;-53
2021/12/14 05:45:08;;;;;;;9.57;7.80;;;;;;;;;;5025903;28;20263;-53
2021/12/14 05:47:40;;;;;;;11.50;7.80;;;;;;;;;;5027057;28;20192;-53
2021/12/14 05:50:06;;;;;;;9.67;7.87;;;;;;;;;;5026836;28;20193;-53
2021/12/14 05:52:32;;;;;;;10.23;8.37;;;;;;;;;;5028122;28;20189;-55
2021/12/14 05:54:59;;;;;;;11.47;8.03;;;;;;;;;;5029291;28;20271;-53
2021/12/14 05:57:26;;;;;;;11.63;8.30;;;;;;;;;;5027576;28;20687;-53
2021/12/14 05:59:53;;;;;;;12.57;9.10;;;;;;;;;;5021482;28;20189;-54
2021/12/14 06:02:20;;;;;;;10.00;7.77;;;;;;;;;;5012343;28;20251;-53
2021/12/14 06:04:50;;;;;;;9.40;7.57;;;;;;;;;;5010475;28;20557;-53
2021/12/14 06:07:17;;;;;;;9.97;8.00;;;;;;;;;;5029627;28;20271;-52
2021/12/14 06:09:45;;;;;;;9.97;8.20;;;;;;;;;;5025209;28;20185;-53
2021/12/14 06:12:13;;;;;;;10.37;8.00;;;;;;;;;;5029738;28;20170;-53
2021/12/14 06:14:44;;;;;;;11.43;8.43;;;;;;;;;;5026890;28;20178;-52
2021/12/14 06:17:11;;;;;;;11.10;8.30;;;;;;;;;;5030945;28;20173;-53
2021/12/14 06:19:42;;;;;;;9.80;7.77;;;;;;;;;;5010800;28;20173;-53
2021/12/14 06:22:11;;;;;;;10.70;8.53;;;;;;;;;;5033321;28;20661;-53
2021/12/14 06:24:39;;;;;;;10.50;8.07;;;;;;;;;;5027701;28;20200;-53
2021/12/14 06:27:09;;;;;;;9.70;8.40;;;;;;;;;;5022781;28;20181;-53
2021/12/14 06:29:36;;;;;;;9.10;7.57;;;;;;;;;;5027768;28;20653;-54
2021/12/14 06:32:10;;;;;;;9.73;7.37;;;;;;;;;;5023301;28;20174;-55
2021/12/14 06:34:38;;;;;;;11.00;8.33;;;;;;;;;;5030568;28;20189;-52
2021/12/14 06:37:15;;;;;;;10.43;9.07;;;;;;;;;;5021717;28;20607;-52
2021/12/14 06:40:01;;;;;;;11.43;8.60;;;;;;;;;;5031252;28;20196;-52
2021/12/14 06:42:34;;;;;;;10.17;7.97;;;;;;;;;;5028836;28;20259;-52
2021/12/14 06:45:05;;;;;;;11.23;8.27;;;;;;;;;;5026684;28;21152;-52
2021/12/14 06:47:31;;;;;;;11.40;9.20;;;;;;;;;;5029018;28;20252;-53
2021/12/14 06:50:00;;;;;;;10.77;8.53;;;;;;;;;;5029050;28;20178;-52
2021/12/14 06:52:26;;;;;;;10.53;8.57;;;;;;;;;;5029193;28;20188;-54
2021/12/14 06:54:52;;;;;;;10.23;8.33;;;;;;;;;;5027587;28;20217;-53
2021/12/14 06:57:18;;;;;;;11.17;8.33;;;;;;;;;;5028233;28;20224;-55
2021/12/14 06:59:44;;;;;;;11.23;8.33;;;;;;;;;;5012632;28;20598;-53
2021/12/14 07:02:12;;;;;;;11.90;8.50;;;;;;;;;;5018208;28;20238;-52
2021/12/14 07:04:42;;;;;;;10.23;8.60;;;;;;;;;;5028163;28;20189;-52
2021/12/14 07:07:10;;;;;;;9.87;8.87;;;;;;;;;;5028003;28;20170;-53
2021/12/14 07:09:40;;;;;;;11.83;8.33;;;;;;;;;;5028438;28;20174;-52
2021/12/14 07:12:12;;;;;;;11.60;8.77;;;;;;;;;;5011033;28;20543;-53
2021/12/14 07:14:41;;;;;;;12.43;9.60;;;;;;;;;;5027457;28;20616;-52
2021/12/14 07:17:10;;;;;;;11.13;9.27;;;;;;;;;;5027579;28;20244;-52
2021/12/14 07:19:39;;;;;;;11.67;9.37;;;;;;;;;;5030588;28;20193;-53
2021/12/14 07:22:06;;;;;;;12.20;8.87;;;;;;;;;;5031956;28;20683;-53
2021/12/14 07:24:35;;;;;;;10.03;8.47;;;;;;;;;;5009135;28;20209;-52
2021/12/14 07:27:17;;;;;;;12.20;9.13;;;;;;;;;;5028902;28;20166;-53
2021/12/14 07:29:43;;;;;;;10.67;8.60;;;;;;;;;;5019347;28;20268;-53
2021/12/14 07:32:10;;;;;;;10.83;8.53;;;;;;;;;;5027777;28;20185;-53
2021/12/14 07:34:36;;;;;;;11.60;9.87;;;;;;;;;;5030010;28;20189;-53
2021/12/14 07:37:02;;;;;;;10.47;8.30;;;;;;;;;;5028726;28;20625;-53
2021/12/14 07:39:28;;;;;;;11.17;8.97;;;;;;;;;;5026856;28;20190;-53
2021/12/14 07:41:56;;;;;;;11.47;8.73;;;;;;;;;;5027510;28;20190;-53
2021/12/14 07:44:24;;;;;;;11.17;8.60;;;;;;;;;;5009317;28;20198;-53
2021/12/14 07:46:58;;;;;;;19.43;10.80;;;;;;;;;;5027145;28;20181;-51
2021/12/14 07:49:26;;;;;;;13.23;10.10;;;;;;;;;;5009954;28;20215;-53
2021/12/14 07:52:14;;;;;;;15.13;10.43;;;;;;;;;;5008081;28;20182;-52
2021/12/14 07:54:48;;;;;;;13.03;10.23;;;;;;;;;;5025231;28;20221;-53
2021/12/14 07:57:14;;;;;;;13.93;9.90;;;;;;;;;;5002522;28;20203;-53
2021/12/14 07:59:42;;;;;;;13.70;9.33;;;;;;;;;;5008086;28;20255;-53
2021/12/14 08:02:12;;;;;;;11.20;9.97;;;;;;;;;;5019812;28;20240;-53
2021/12/14 08:04:39;;;;;;;14.27;10.30;;;;;;;;;;5027117;28;20266;-52
2021/12/14 08:07:06;;;;;;;13.33;9.70;;;;;;;;;;5027505;28;20185;-55
2021/12/14 08:09:45;;;;;;;13.70;9.70;;;;;;;;;;5027390;28;20263;-53
2021/12/14 08:12:12;;;;;;;13.90;9.80;;;;;;;;;;5028166;28;20629;-52
2021/12/14 08:14:38;;;;;;;14.10;10.63;;;;;;;;;;5026128;28;20185;-53
2021/12/14 08:17:07;;;;;;;15.23;10.73;;;;;;;;;;5027499;28;20664;-52
2021/12/14 08:19:38;;;;;;;14.27;10.33;;;;;;;;;;5009285;28;20273;-53
2021/12/14 08:22:27;;;;;;;15.70;10.73;;;;;;;;;;5007349;28;20182;-52
2021/12/14 08:24:53;;;;;;;17.43;11.40;;;;;;;;;;5006575;28;20557;-53
2021/12/14 08:27:21;;;;;;;14.10;10.53;;;;;;;;;;5028170;28;20189;-55
2021/12/14 08:29:58;;;;;;;12.63;10.30;;;;;;;;;;5012231;28;20607;-53
2021/12/14 08:32:31;;;;;;;16.40;11.03;;;;;;;;;;5031835;28;20185;-52
2021/12/14 08:34:59;;;;;;;16.73;11.10;;;;;;;;;;5014112;28;20273;-52
2021/12/14 08:37:31;;;;;;;14.53;11.17;;;;;;;;;;5012803;28;20196;-53
2021/12/14 08:40:02;;;;;;;14.80;11.40;;;;;;;;;;5007347;28;20181;-53
2021/12/14 08:42:37;;;;;;;19.63;11.37;;;;;;;;;;5031178;28;20638;-53
2021/12/14 08:45:24;;;;;;;13.83;10.80;;;;;;;;;;5030092;28;20205;-53
2021/12/14 08:47:53;;;;;;;15.47;10.77;;;;;;;;;;5029919;28;20194;-53
2021/12/14 08:50:19;;;;;;;15.80;9.90;;;;;;;;;;5031151;28;20648;-53
2021/12/14 08:52:45;;;;;;;14.80;11.23;;;;;;;;;;5013135;28;20228;-55
2021/12/14 08:55:14;;;;;;;17.07;11.77;;;;;;;;;;5012650;28;20694;-55
2021/12/14 08:57:41;;;;;;;14.30;10.63;;;;;;;;;;5030568;28;20246;-54
2021/12/14 09:00:17;;;;;;;13.73;11.03;;;;;;;;;;5011069;28;20188;-52
2021/12/14 09:02:45;;;;;;;14.70;11.47;;;;;;;;;;5023287;28;20181;-53
2021/12/14 09:05:18;;;;;;;13.77;11.43;;;;;;;;;;5030543;28;20221;-53
2021/12/14 09:07:44;;;;;;;14.00;10.60;;;;;;;;;;5013113;28;20182;-53
2021/12/14 09:10:14;;;;;;;17.10;12.47;;;;;;;;;;5029192;28;20549;-55
2021/12/14 09:12:41;;;;;;;14.17;10.80;;;;;;;;;;5030450;28;20178;-52
2021/12/14 09:15:13;;;;;;;15.23;11.13;;;;;;;;;;5029266;28;20253;-52
2021/12/14 09:17:39;;;;;;;16.60;11.57;;;;;;;;;;5039082;28;20182;-52
2021/12/14 09:20:11;;;;;;;14.57;11.23;;;;;;;;;;5029714;28;20208;-52
2021/12/14 09:22:41;;;;;;;14.40;11.63;;;;;;;;;;5020378;28;20194;-55
2021/12/14 09:25:08;;;;;;;13.30;11.37;;;;;;;;;;5027607;28;20190;-53
2021/12/14 09:27:35;;;;;;;16.57;11.97;;;;;;;;;;5030268;28;20205;-52
2021/12/14 09:30:01;;;;;;;17.93;12.17;;;;;;;;;;5017876;28;20590;-54
2021/12/14 09:32:28;;;;;;;15.47;11.83;;;;;;;;;;5030283;28;20200;-51
2021/12/14 09:34:57;;;;;;;16.63;10.97;;;;;;;;;;5029232;28;20209;-53
2021/12/14 09:37:24;;;;;;;13.10;10.27;;;;;;;;;;5015332;28;20284;-53
2021/12/14 09:39:57;;;;;;;13.63;9.97;;;;;;;;;;5030971;28;20183;-52
2021/12/14 09:42:28;;;;;;;14.07;10.03;;;;;;;;;;5030525;28;20193;-53
2021/12/14 09:44:57;;;;;;;14.40;11.50;;;;;;;;;;5028387;28;20202;-52
2021/12/14 09:47:26;;;;;;;13.67;10.27;;;;;;;;;;5030116;28;20565;-52
2021/12/14 09:49:53;;;;;;;14.17;10.37;;;;;;;;;;5012161;28;20186;-52
2021/12/14 09:52:34;;;;;;;15.23;10.90;;;;;;;;;;5022550;28;20328;-52
2021/12/14 09:55:00;;;;;;;13.87;10.93;;;;;;;;;;5027376;28;20233;-53
2021/12/14 09:57:35;;;;;;;15.73;11.67;;;;;;;;;;5029776;28;20198;-53
2021/12/14 10:00:04;;;;;;;14.40;10.70;;;;;;;;;;5027945;28;20561;-52
2021/12/14 10:02:33;;;;;;;14.83;10.90;;;;;;;;;;5024284;28;20186;-51
2021/12/14 10:05:08;;;;;;;15.50;11.93;;;;;;;;;;5029314;28;20194;-53
2021/12/14 10:07:34;;;;;;;14.23;11.33;;;;;;;;;;5012116;28;20549;-54
2021/12/14 10:10:01;;;;;;;14.10;11.57;;;;;;;;;;5028024;28;20282;-55
2021/12/14 10:15:13;;;;;;;17.07;12.20;;;;;;;;;;5025059;28;20231;-53
2021/12/14 10:17:41;;;;;;;14.87;10.80;;;;;;;;;;5023295;28;20174;-53
2021/12/14 10:20:09;;;;;;;15.83;12.33;;;;;;;;;;5029021;28;20189;-53
2021/12/14 10:22:35;;;;;;;15.37;11.50;;;;;;;;;;5021594;28;20202;-54
2021/12/14 10:25:06;;;;;;;16.23;11.87;;;;;;;;;;5007324;28;20277;-53
2021/12/14 10:27:33;;;;;;;14.97;11.23;;;;;;;;;;5020334;28;20529;-55
2021/12/14 10:30:01;;;;;;;15.73;11.73;;;;;;;;;;5028376;28;20200;-53
2021/12/14 10:32:30;;;;;;;16.23;11.83;;;;;;;;;;5010905;28;20185;-55
2021/12/14 10:34:58;;;;;;;16.43;11.67;;;;;;;;;;4994371;28;20190;-54
2021/12/14 10:37:37;;;;;;;16.03;12.47;;;;;;;;;;5031304;28;20181;-53
2021/12/14 10:45:22;;;;;;;16.40;12.13;;;;;;;;;;5027856;28;20198;-52
2021/12/14 10:47:49;;;;;;;14.53;11.93;;;;;;;;;;5023999;28;20583;-53
2021/12/14 10:50:17;;;;;;;16.33;11.97;;;;;;;;;;5010290;28;20178;-52
2021/12/14 10:52:44;;;;;;;18.13;11.87;;;;;;;;;;5027602;28;20181;-53
2021/12/14 10:55:13;;;;;;;13.90;11.67;;;;;;;;;;5026015;28;20585;-53
2021/12/14 10:57:42;;;;;;;15.10;11.40;;;;;;;;;;5027783;28;20205;-53
2021/12/14 11:00:28;;;;;;;17.73;12.47;;;;;;;;;;5025569;28;20256;-54
2021/12/14 11:02:54;;;;;;;17.83;12.43;;;;;;;;;;5022265;28;20177;-53
2021/12/14 11:05:21;;;;;;;14.67;11.83;;;;;;;;;;5020897;28;20222;-52
2021/12/14 11:07:49;;;;;;;15.37;12.13;;;;;;;;;;5027481;28;20615;-54
2021/12/14 11:10:22;;;;;;;19.10;12.67;;;;;;;;;;5024275;28;20209;-53
2021/12/14 11:12:50;;;;;;;16.33;12.83;;;;;;;;;;5024334;28;20185;-53
2021/12/14 11:15:23;;;;;;;16.90;12.90;;;;;;;;;;5016459;28;20487;-53
2021/12/14 11:18:11;;;;;;;17.23;12.57;;;;;;;;;;5025504;28;20209;-52
2021/12/14 11:20:40;;;;;;;14.43;11.80;;;;;;;;;;5024975;28;20798;-53
2021/12/14 11:23:26;;;;;;;16.50;12.30;;;;;;;;;;5020301;28;20272;-52
2021/12/14 11:25:52;;;;;;;16.57;12.53;;;;;;;;;;5019672;28;20194;-53
2021/12/14 11:28:31;;;;;;;18.03;12.90;;;;;;;;;;5025510;28;20185;-53
2021/12/14 11:31:10;;;;;;;16.60;12.30;;;;;;;;;;5021284;28;20186;-53
2021/12/14 11:33:42;;;;;;;15.00;12.13;;;;;;;;;;5017821;28;20687;-53
2021/12/14 11:36:13;;;;;;;17.70;12.83;;;;;;;;;;5024783;28;20172;-54
2021/12/14 11:38:48;;;;;;;17.50;12.20;;;;;;;;;;5027010;28;20189;-52
2021/12/14 11:41:24;;;;;;;17.73;12.50;;;;;;;;;;5025006;28;20482;-52
2021/12/14 11:44:00;;;;;;;16.87;12.23;;;;;;;;;;5027733;28;20524;-53
2021/12/14 11:46:29;;;;;;;17.17;12.17;;;;;;;;;;5003233;28;20383;-52
2021/12/14 11:48:58;;;;;;;16.17;12.50;;;;;;;;;;5024958;28;20235;-52
2021/12/14 11:51:24;;;;;;;16.93;11.60;;;;;;;;;;5025146;28;20185;-53
2021/12/14 11:53:53;;;;;;;16.50;12.53;;;;;;;;;;5022163;28;20177;-53
2021/12/14 11:56:21;;;;;;;15.83;12.00;;;;;;;;;;5007150;28;20823;-52
2021/12/14 11:58:50;;;;;;;15.33;11.33;;;;;;;;;;5022419;28;20193;-52
2021/12/14 12:01:20;;;;;;;16.23;12.13;;;;;;;;;;5022130;28;20563;-52
2021/12/14 12:03:59;;;;;;;15.43;12.10;;;;;;;;;;5022323;28;20181;-52
2021/12/14 12:06:44;;;;;;;15.50;11.77;;;;;;;;;;5006402;28;20204;-53
2021/12/14 12:09:32;;;;;;;15.53;11.87;;;;;;;;;;5023103;28;20513;-52
2021/12/14 12:12:04;;;;;;;24.83;12.87;;;;;;;;;;5019137;28;20685;-54
2021/12/14 12:14:49;;;;;;;18.47;12.77;;;;;;;;;;5021944;28;20186;-53
2021/12/14 12:17:34;;;;;;;15.90;11.10;;;;;;;;;;5017749;28;20174;-52
2021/12/14 12:20:21;;;;;;;16.33;12.50;;;;;;;;;;5019302;28;20213;-52
2021/12/14 12:22:58;;;;;;;15.67;12.53;;;;;;;;;;5022617;28;20177;-52
2021/12/14 12:25:27;;;;;;;17.43;12.80;;;;;;;;;;5016805;28;20579;-53
2021/12/14 12:27:56;;;;;;;17.90;13.07;;;;;;;;;;5025938;28;20224;-53
2021/12/14 12:30:55;;;;;;;17.90;12.23;;;;;;;;;;5025625;28;20547;-52
2021/12/14 12:33:21;;;;;;;17.87;12.87;;;;;;;;;;4997212;28;20723;-53
2021/12/14 12:35:58;;;;;;;15.77;11.60;;;;;;;;;;5026506;28;20182;-52
2021/12/14 12:38:25;;;;;;;15.77;11.70;;;;;;;;;;5025313;28;20216;-53
2021/12/14 12:41:09;;;;;;;16.27;12.70;;;;;;;;;;5018622;28;20461;-52
2021/12/14 12:43:38;;;;;;;15.57;11.47;;;;;;;;;;5022097;28;20185;-52
2021/12/14 12:46:13;;;;;;;16.77;13.17;;;;;;;;;;5022215;28;20206;-53
2021/12/14 12:48:41;;;;;;;19.57;13.70;;;;;;;;;;5023236;28;20569;-53
2021/12/14 12:51:07;;;;;;;17.57;12.43;;;;;;;;;;5025233;28;20223;-53
2021/12/14 12:53:33;;;;;;;18.87;12.50;;;;;;;;;;5026842;28;20182;-52
2021/12/14 12:56:12;;;;;;;16.87;12.50;;;;;;;;;;5023527;28;20220;-55
2021/12/14 12:58:42;;;;;;;16.20;11.80;;;;;;;;;;5016062;28;20190;-52
2021/12/14 13:01:08;;;;;;;17.67;13.07;;;;;;;;;;5021024;28;20186;-52
2021/12/14 13:03:37;;;;;;;16.23;12.50;;;;;;;;;;5023534;28;20189;-54
2021/12/14 13:06:06;;;;;;;15.73;12.17;;;;;;;;;;5020401;28;20653;-52
2021/12/14 13:08:33;;;;;;;18.07;13.50;;;;;;;;;;5024329;28;20170;-53
2021/12/14 13:11:01;;;;;;;18.20;12.33;;;;;;;;;;5023019;28;20639;-52
2021/12/14 13:13:36;;;;;;;17.60;13.10;;;;;;;;;;5020989;28;20168;-53
2021/12/14 13:16:02;;;;;;;15.33;11.93;;;;;;;;;;5021615;28;20200;-54
2021/12/14 13:18:40;;;;;;;17.27;11.87;;;;;;;;;;5020731;28;20223;-53
2021/12/14 13:21:13;;;;;;;15.00;11.80;;;;;;;;;;5026445;28;20177;-52
2021/12/14 13:23:48;;;;;;;19.60;13.80;;;;;;;;;;5026523;28;20179;-52
2021/12/14 13:26:23;;;;;;;17.53;13.07;;;;;;;;;;5025103;28;20764;-52
2021/12/14 13:28:50;;;;;;;18.97;13.40;;;;;;;;;;5028549;28;20172;-51
2021/12/14 13:31:28;;;;;;;15.80;11.30;;;;;;;;;;5020793;28;20197;-53
2021/12/14 13:33:54;;;;;;;14.13;11.77;;;;;;;;;;5013620;28;20182;-52
2021/12/14 13:36:20;;;;;;;16.80;12.47;;;;;;;;;;5027937;28;20236;-53
2021/12/14 13:38:46;;;;;;;16.87;13.40;;;;;;;;;;5023015;28;20659;-53
2021/12/14 13:41:21;;;;;;;18.97;12.70;;;;;;;;;;5029316;28;20212;-55
2021/12/14 13:43:47;;;;;;;17.17;12.87;;;;;;;;;;5030072;28;20169;-53
2021/12/14 13:46:14;;;;;;;17.57;12.60;;;;;;;;;;5005893;28;20704;-53
2021/12/14 13:48:45;;;;;;;19.13;13.10;;;;;;;;;;5017851;28;20181;-52
2021/12/14 13:51:13;;;;;;;16.33;12.63;;;;;;;;;;5025230;28;20672;-53
2021/12/14 13:53:47;;;;;;;15.63;11.30;;;;;;;;;;5018505;28;20262;-53
2021/12/14 13:56:21;;;;;;;20.53;12.77;;;;;;;;;;5021338;28;20284;-53
2021/12/14 13:58:47;;;;;;;18.23;12.17;;;;;;;;;;5027582;28;20169;-53
2021/12/14 14:01:16;;;;;;;16.73;13.40;;;;;;;;;;5023921;28;20218;-51
2021/12/14 14:03:44;;;;;;;18.50;13.03;;;;;;;;;;5022277;28;20215;-55
2021/12/14 14:06:13;;;;;;;17.27;13.10;;;;;;;;;;5014803;28;20255;-55
2021/12/14 14:08:41;;;;;;;17.07;12.80;;;;;;;;;;5021795;28;20665;-53
2021/12/14 14:11:26;;;;;;;15.70;11.80;;;;;;;;;;5020731;28;20227;-53
2021/12/14 14:13:54;;;;;;;16.80;12.93;;;;;;;;;;5020047;28;20179;-53
2021/12/14 14:16:20;;;;;;;18.73;12.40;;;;;;;;;;5003023;28;20665;-55
2021/12/14 14:18:53;;;;;;;18.03;12.93;;;;;;;;;;5027434;28;20205;-52
2021/12/14 14:21:30;;;;;;;19.77;14.80;;;;;;;;;;5025195;28;20640;-53
2021/12/14 14:23:56;;;;;;;17.07;12.83;;;;;;;;;;5018885;28;20240;-55
2021/12/14 14:26:42;;;;;;;19.67;14.13;;;;;;;;;;5026805;28;20210;-52
2021/12/14 14:29:10;;;;;;;16.60;12.17;;;;;;;;;;5018836;28;20181;-55
2021/12/14 14:31:45;;;;;;;17.00;12.80;;;;;;;;;;5018342;28;20175;-55
2021/12/14 14:34:20;;;;;;;19.20;13.60;;;;;;;;;;5022020;28;20264;-55
2021/12/14 14:36:54;;;;;;;15.80;13.10;;;;;;;;;;5025863;28;20178;-53
2021/12/14 14:39:22;;;;;;;18.13;12.67;;;;;;;;;;5032540;28;20188;-52
2021/12/14 14:41:59;;;;;;;17.53;13.23;;;;;;;;;;5018112;28;20258;-52
2021/12/14 14:44:28;;;;;;;17.83;13.30;;;;;;;;;;5008106;28;20562;-53
2021/12/14 14:47:06;;;;;;;17.87;13.80;;;;;;;;;;5002066;28;20193;-53
2021/12/14 14:49:38;;;;;;;18.70;13.63;;;;;;;;;;5017497;28;20265;-54
2021/12/14 14:52:13;;;;;;;17.27;12.30;;;;;;;;;;5005281;28;20175;-52
2021/12/14 14:54:49;;;;;;;19.07;13.50;;;;;;;;;;5018457;28;20216;-53
2021/12/14 14:57:15;;;;;;;17.77;13.40;;;;;;;;;;5007382;28;20255;-53
2021/12/14 14:59:45;;;;;;;19.13;14.27;;;;;;;;;;5010415;28;20677;-54
2021/12/14 15:02:12;;;;;;;19.43;13.37;;;;;;;;;;5021256;28;20229;-52
2021/12/14 15:04:57;;;;;;;18.03;13.87;;;;;;;;;;5003147;28;20202;-53
2021/12/14 15:07:23;;;;;;;17.40;12.17;;;;;;;;;;5014986;28;20261;-53
2021/12/14 15:10:08;;;;;;;18.70;13.07;;;;;;;;;;5018944;28;20260;-53
2021/12/14 15:12:37;;;;;;;15.33;12.13;;;;;;;;;;5013939;28;20397;-54
2021/12/14 15:15:11;;;;;;;14.53;12.27;;;;;;;;;;5010490;28;20198;-55
2021/12/14 15:17:50;;;;;;;16.13;13.27;;;;;;;;;;5027097;28;20190;-54
2021/12/14 15:20:34;;;;;;;15.63;12.47;;;;;;;;;;5022372;28;20170;-54
2021/12/14 15:23:09;;;;;;;15.77;12.43;;;;;;;;;;5025615;28;20181;-51
2021/12/14 15:25:36;;;;;;;19.13;13.03;;;;;;;;;;5004322;28;20202;-53